createdAt,value
2022-10-11T00:00:02.553Z,1020.1
2022-10-11T00:01:02.848Z,1020.1
2022-10-11T00:02:02.407Z,1020.1
2022-10-11T00:03:02.420Z,1020.1
2022-10-11T00:04:02.112Z,1020.1
2022-10-11T00:05:02.133Z,1020.1
2022-10-11T00:06:02.888Z,1020
2022-10-11T00:07:01.754Z,1020.1
2022-10-11T00:08:02.756Z,1020.1
2022-10-11T00:09:02.538Z,1020.1
2022-10-11T00:10:02.435Z,1020.1
2022-10-11T00:11:02.400Z,1020.1
2022-10-11T00:12:02.102Z,1020.1
2022-10-11T00:13:02.037Z,1020.1
2022-10-11T00:14:01.756Z,1020.1
2022-10-11T00:15:02.801Z,1020.1
2022-10-11T00:16:03.774Z,1020.1
2022-10-11T00:17:02.420Z,1020
2022-10-11T00:18:05.863Z,1020.1
2022-10-11T00:19:02.737Z,1020.1
2022-10-11T00:20:02.437Z,1020.1
2022-10-11T00:21:02.429Z,1020.1
2022-10-11T00:22:02.307Z,1020.2
2022-10-11T00:23:02.005Z,1020.1
2022-10-11T00:24:01.973Z,1020.1
2022-10-11T00:25:01.712Z,1020.1
2022-10-11T00:26:04.475Z,1020.1
2022-10-11T00:27:02.326Z,1020
2022-10-11T00:28:02.399Z,1020
2022-10-11T00:29:02.222Z,1020.1
2022-10-11T00:30:01.977Z,1020
2022-10-11T00:31:03.193Z,1020.1
2022-10-11T00:32:01.738Z,1020.1
2022-10-11T00:33:02.677Z,1020.1
2022-10-11T00:34:02.521Z,1020.1
2022-10-11T00:35:02.488Z,1020.1
2022-10-11T00:36:03.679Z,1020.1
2022-10-11T00:37:02.668Z,1020.1
2022-10-11T00:38:02.446Z,1020
2022-10-11T00:39:02.466Z,1020
2022-10-11T00:40:02.148Z,1020.1
2022-10-11T00:41:02.108Z,1020
2022-10-11T00:42:01.841Z,1020.1
2022-10-11T00:43:01.852Z,1020.1
2022-10-11T00:44:02.718Z,1020.1
2022-10-11T00:45:02.435Z,1020.1
2022-10-11T00:46:03.712Z,1020
2022-10-11T00:47:01.845Z,1020.1
2022-10-11T00:48:01.815Z,1020.1
2022-10-11T00:49:02.779Z,1020.1
2022-10-11T00:50:02.400Z,1020.1
2022-10-11T00:51:03.895Z,1020
2022-10-11T00:52:01.768Z,1020.1
2022-10-11T00:53:01.735Z,1020.1
2022-10-11T00:54:02.680Z,1020.1
2022-10-11T00:55:02.391Z,1020.1
2022-10-11T00:56:03.838Z,1020.1
2022-10-11T00:57:01.718Z,1020.1
2022-10-11T00:58:02.734Z,1020
2022-10-11T00:59:02.500Z,1020.1
2022-10-11T01:00:02.568Z,1020.1
2022-10-11T01:01:02.535Z,1020.1
2022-10-11T01:02:02.237Z,1020.1
2022-10-11T01:03:02.205Z,1020.1
2022-10-11T01:04:01.999Z,1020.1
2022-10-11T01:05:30.544Z,1020.1
2022-10-11T01:06:03.648Z,1020.1
2022-10-11T01:07:02.468Z,1020.1
2022-10-11T01:08:02.468Z,1020.1
2022-10-11T01:09:02.313Z,1020.1
2022-10-11T01:10:02.094Z,1020.1
2022-10-11T01:11:02.067Z,1020.1
2022-10-11T01:12:01.801Z,1020.1
2022-10-11T01:13:01.776Z,1020.1
2022-10-11T01:14:02.618Z,1020.1
2022-10-11T01:15:02.416Z,1020.1
2022-10-11T01:16:03.735Z,1020.1
2022-10-11T01:17:02.430Z,1020.1
2022-10-11T01:18:02.221Z,1020.1
2022-10-11T01:19:02.173Z,1020.1
2022-10-11T01:20:01.921Z,1020.1
2022-10-11T01:21:01.869Z,1020.2
2022-10-11T01:22:02.721Z,1020.2
2022-10-11T01:23:02.490Z,1020.2
2022-10-11T01:24:09.162Z,1020.1
2022-10-11T01:25:01.807Z,1020.2
2022-10-11T01:26:02.904Z,1020.1
2022-10-11T01:27:01.768Z,1020.1
2022-10-11T01:28:01.811Z,1020.2
2022-10-11T01:29:02.635Z,1020.2
2022-10-11T01:30:02.386Z,1020.2
2022-10-11T01:31:02.363Z,1020.2
2022-10-11T01:32:02.567Z,1020.2
2022-10-11T01:33:02.371Z,1020.2
2022-10-11T01:34:02.144Z,1020.2
2022-10-11T01:35:02.001Z,1020.2
2022-10-11T01:36:03.369Z,1020.2
2022-10-11T01:37:02.460Z,1020.2
2022-10-11T01:38:02.190Z,1020.2
2022-10-11T01:39:02.235Z,1020.2
2022-10-11T01:40:01.909Z,1020.2
2022-10-11T01:41:01.872Z,1020.2
2022-10-11T01:42:02.771Z,1020.2
2022-10-11T01:43:02.524Z,1020.2
2022-10-11T01:44:02.515Z,1020.1
2022-10-11T01:45:02.250Z,1020.2
2022-10-11T01:46:03.650Z,1020.2
2022-10-11T01:47:02.548Z,1020.2
2022-10-11T01:48:02.321Z,1020.1
2022-10-11T01:49:02.230Z,1020.2
2022-10-11T01:50:02.069Z,1020.1
2022-10-11T01:51:01.971Z,1020.2
2022-10-11T01:52:01.707Z,1020.2
2022-10-11T01:53:02.677Z,1020.1
2022-10-11T01:54:02.443Z,1020.1
2022-10-11T01:55:10.778Z,1020.1
2022-10-11T01:56:03.977Z,1020.2
2022-10-11T01:57:01.757Z,1020.1
2022-10-11T01:58:02.711Z,1020.1
2022-10-11T01:59:02.520Z,1020.2
2022-10-11T02:00:02.573Z,1020.1
2022-10-11T02:01:02.557Z,1020.2
2022-10-11T02:02:02.550Z,1020.1
2022-10-11T02:03:02.603Z,1020.2
2022-10-11T02:04:02.317Z,1020.2
2022-10-11T02:05:02.301Z,1020.2
2022-10-11T02:06:03.170Z,1020.2
2022-10-11T02:07:02.052Z,1020.2
2022-10-11T02:08:02.020Z,1020.2
2022-10-11T02:09:08.560Z,1020.2
2022-10-11T02:10:02.179Z,1020.2
2022-10-11T02:11:02.252Z,1020.2
2022-10-11T02:12:02.019Z,1020.2
2022-10-11T02:13:02.014Z,1020.2
2022-10-11T02:14:01.698Z,1020.2
2022-10-11T02:15:02.667Z,1020.2
2022-10-11T02:16:03.822Z,1020.2
2022-10-11T02:17:01.682Z,1020.2
2022-10-11T02:18:02.710Z,1020.1
2022-10-11T02:19:02.410Z,1020.2
2022-10-11T02:20:02.446Z,1020.2
2022-10-11T02:21:02.118Z,1020.2
2022-10-11T02:22:02.071Z,1020.1
2022-10-11T02:23:01.789Z,1020.2
2022-10-11T02:24:01.903Z,1020.1
2022-10-11T02:25:02.691Z,1020.1
2022-10-11T02:26:03.367Z,1020.1
2022-10-11T02:27:02.330Z,1020.2
2022-10-11T02:28:02.227Z,1020.2
2022-10-11T02:29:01.985Z,1020.2
2022-10-11T02:30:02.003Z,1020.1
2022-10-11T02:31:01.708Z,1020.1
2022-10-11T02:32:02.009Z,1020.1
2022-10-11T02:33:01.970Z,1020.1
2022-10-11T02:34:01.705Z,1020.1
2022-10-11T02:35:02.659Z,1020.1
2022-10-11T02:36:03.971Z,1020.1
2022-10-11T02:37:01.829Z,1020.1
2022-10-11T02:38:01.807Z,1020.2
2022-10-11T02:39:02.720Z,1020.1
2022-10-11T02:40:02.387Z,1020.2
2022-10-11T02:41:02.435Z,1020.2
2022-10-11T02:42:02.108Z,1020.2
2022-10-11T02:43:02.091Z,1020.2
2022-10-11T02:44:01.847Z,1020.2
2022-10-11T02:45:01.886Z,1020.2
2022-10-11T02:46:04.029Z,1020.2
2022-10-11T02:47:02.302Z,1020.2
2022-10-11T02:48:02.341Z,1020.2
2022-10-11T02:49:02.034Z,1020.2
2022-10-11T02:50:01.932Z,1020.2
2022-10-11T02:51:01.720Z,1020.3
2022-10-11T02:52:02.686Z,1020.2
2022-10-11T02:53:02.482Z,1020.2
2022-10-11T02:54:02.537Z,1020.3
2022-10-11T02:55:02.233Z,1020.3
2022-10-11T02:56:03.354Z,1020.3
2022-10-11T02:57:02.423Z,1020.3
2022-10-11T02:58:02.139Z,1020.2
2022-10-11T02:59:02.085Z,1020.3
2022-10-11T03:00:01.830Z,1020.3
2022-10-11T03:01:01.782Z,1020.2
2022-10-11T03:02:01.949Z,1020.3
2022-10-11T03:03:01.788Z,1020.2
2022-10-11T03:04:02.632Z,1020.3
2022-10-11T03:05:02.430Z,1020.3
2022-10-11T03:06:03.649Z,1020.2
2022-10-11T03:07:02.720Z,1020.3
2022-10-11T03:08:02.421Z,1020.3
2022-10-11T03:09:02.489Z,1020.3
2022-10-11T03:10:02.351Z,1020.3
2022-10-11T03:11:02.048Z,1020.4
2022-10-11T03:12:02.066Z,1020.4
2022-10-11T03:13:01.741Z,1020.4
2022-10-11T03:14:02.700Z,1020.4
2022-10-11T03:15:02.514Z,1020.4
2022-10-11T03:16:04.252Z,1020.4
2022-10-11T03:17:37.418Z,1020.4
2022-10-11T03:18:02.248Z,1020.4
2022-10-11T03:19:02.207Z,1020.6
2022-10-11T03:20:02.035Z,1020.5
2022-10-11T03:21:02.117Z,1020.5
2022-10-11T03:22:01.748Z,1020.5
2022-10-11T03:23:02.745Z,1020.5
2022-10-11T03:24:02.576Z,1020.5
2022-10-11T03:25:05.309Z,1020.5
2022-10-11T03:26:03.387Z,1020.5
2022-10-11T03:27:02.308Z,1020.5
2022-10-11T03:28:02.055Z,1020.6
2022-10-11T03:29:02.131Z,1020.5
2022-10-11T03:30:01.837Z,1020.6
2022-10-11T03:31:01.807Z,1020.5
2022-10-11T03:32:01.712Z,1020.6
2022-10-11T03:33:02.718Z,1020.6
2022-10-11T03:34:02.438Z,1020.7
2022-10-11T03:35:02.445Z,1020.7
2022-10-11T03:36:03.556Z,1020.7
2022-10-11T03:37:02.365Z,1020.7
2022-10-11T03:38:02.347Z,1020.7
2022-10-11T03:39:02.080Z,1020.7
2022-10-11T03:40:02.104Z,1020.7
2022-10-11T03:41:01.789Z,1020.7
2022-10-11T03:42:01.768Z,1020.7
2022-10-11T03:43:02.682Z,1020.7
2022-10-11T03:44:02.437Z,1020.7
2022-10-11T03:45:02.417Z,1020.8
2022-10-11T03:46:03.392Z,1020.7
2022-10-11T03:47:01.718Z,1020.7
2022-10-11T03:48:02.755Z,1020.7
2022-10-11T03:49:02.513Z,1020.7
2022-10-11T03:50:02.547Z,1020.8
2022-10-11T03:51:02.249Z,1020.7
2022-10-11T03:52:02.238Z,1020.8
2022-10-11T03:53:01.982Z,1020.8
2022-10-11T03:54:01.922Z,1020.7
2022-10-11T03:55:01.710Z,1020.7
2022-10-11T03:56:08.940Z,1020.7
2022-10-11T03:57:02.630Z,1020.7
2022-10-11T03:58:02.620Z,1020.8
2022-10-11T03:59:02.393Z,1020.8
2022-10-11T04:00:02.402Z,1020.7
2022-10-11T04:01:02.248Z,1020.7
2022-10-11T04:02:02.261Z,1020.7
2022-10-11T04:03:02.020Z,1020.7
2022-10-11T04:04:01.836Z,1020.7
2022-10-11T04:05:01.774Z,1020.7
2022-10-11T04:06:04.016Z,1020.7
2022-10-11T04:07:01.977Z,1020.8
2022-10-11T04:08:02.006Z,1020.7
2022-10-11T04:09:01.701Z,1020.7
2022-10-11T04:10:02.700Z,1020.7
2022-10-11T04:11:02.460Z,1020.8
2022-10-11T04:12:02.463Z,1020.8
2022-10-11T04:13:02.455Z,1020.8
2022-10-11T04:14:02.126Z,1020.8
2022-10-11T04:15:02.056Z,1020.8
2022-10-11T04:16:03.237Z,1020.8
2022-10-11T04:17:02.599Z,1020.8
2022-10-11T04:18:02.491Z,1020.9
2022-10-11T04:19:02.410Z,1020.8
2022-10-11T04:20:02.193Z,1020.8
2022-10-11T04:21:02.155Z,1020.9
2022-10-11T04:22:01.866Z,1020.9
2022-10-11T04:23:01.836Z,1020.8
2022-10-11T04:24:02.684Z,1020.8
2022-10-11T04:25:02.469Z,1020.8
2022-10-11T04:26:03.722Z,1020.8
2022-10-11T04:27:02.595Z,1020.9
2022-10-11T04:28:02.339Z,1020.9
2022-10-11T04:29:02.361Z,1020.9
2022-10-11T04:30:02.086Z,1020.9
2022-10-11T04:31:02.011Z,1020.9
2022-10-11T04:32:01.942Z,1020.9
2022-10-11T04:33:01.881Z,1020.9
2022-10-11T04:34:01.679Z,1021
2022-10-11T04:35:05.188Z,1020.9
2022-10-11T04:36:02.944Z,1021
2022-10-11T04:37:02.036Z,1021
2022-10-11T04:38:01.788Z,1020.9
2022-10-11T04:39:01.729Z,1020.9
2022-10-11T04:40:02.673Z,1021
2022-10-11T04:41:02.392Z,1020.9
2022-10-11T04:42:02.290Z,1021
2022-10-11T04:43:02.122Z,1021
2022-10-11T04:44:02.161Z,1021
2022-10-11T04:45:01.848Z,1020.9
2022-10-11T04:46:01.768Z,1021
2022-10-11T04:47:01.761Z,1020.9
2022-10-11T04:48:02.732Z,1020.9
2022-10-11T04:49:02.486Z,1021
2022-10-11T04:50:02.500Z,1020.9
2022-10-11T04:51:02.354Z,1021
2022-10-11T04:52:02.119Z,1021
2022-10-11T04:53:02.102Z,1021.1
2022-10-11T04:54:01.792Z,1021
2022-10-11T04:55:01.766Z,1021
2022-10-11T04:56:04.458Z,1021
2022-10-11T04:57:02.348Z,1021
2022-10-11T04:58:02.369Z,1021
2022-10-11T04:59:02.092Z,1021
2022-10-11T05:00:01.942Z,1021
2022-10-11T05:01:01.805Z,1020.9
2022-10-11T05:02:02.118Z,1021
2022-10-11T05:03:01.896Z,1021
2022-10-11T05:04:01.666Z,1021
2022-10-11T05:05:02.644Z,1021.1
2022-10-11T05:06:06.707Z,1021.1
2022-10-11T05:07:02.445Z,1021.1
2022-10-11T05:08:02.512Z,1021.1
2022-10-11T05:09:02.230Z,1021.1
2022-10-11T05:10:02.164Z,1021
2022-10-11T05:11:01.886Z,1021.1
2022-10-11T05:12:01.969Z,1021.1
2022-10-11T05:13:01.659Z,1021.1
2022-10-11T05:14:02.539Z,1021.1
2022-10-11T05:15:02.380Z,1021.2
2022-10-11T05:16:11.479Z,1021.2
2022-10-11T05:17:02.533Z,1021.2
2022-10-11T05:18:02.258Z,1021.1
2022-10-11T05:19:02.197Z,1021.2
2022-10-11T05:20:01.994Z,1021.2
2022-10-11T05:21:01.984Z,1021.3
2022-10-11T05:22:01.650Z,1021.3
2022-10-11T05:23:02.628Z,1021.2
2022-10-11T05:24:02.370Z,1021.3
2022-10-11T05:25:02.427Z,1021.3
2022-10-11T05:26:03.517Z,1021.3
2022-10-11T05:27:04.191Z,1021.3
2022-10-11T05:28:01.809Z,1021.4
2022-10-11T05:29:02.058Z,1021.4
2022-10-11T05:30:01.781Z,1021.4
2022-10-11T05:31:01.730Z,1021.4
2022-10-11T05:32:02.806Z,1021.4
2022-10-11T05:33:02.543Z,1021.4
2022-10-11T05:34:02.574Z,1021.5
2022-10-11T05:35:02.341Z,1021.5
2022-10-11T05:36:03.729Z,1021.5
2022-10-11T05:37:02.714Z,1021.5
2022-10-11T05:38:02.493Z,1021.5
2022-10-11T05:39:02.506Z,1021.5
2022-10-11T05:40:01.912Z,1021.5
2022-10-11T05:41:01.812Z,1021.6
2022-10-11T05:42:10.253Z,1021.6
2022-10-11T05:43:01.975Z,1021.6
2022-10-11T05:44:01.905Z,1021.6
2022-10-11T05:45:01.703Z,1021.6
2022-10-11T05:46:04.140Z,1021.7
2022-10-11T05:47:02.342Z,1021.7
2022-10-11T05:48:02.350Z,1021.6
2022-10-11T05:49:02.093Z,1021.7
2022-10-11T05:50:02.015Z,1021.7
2022-10-11T05:51:01.753Z,1021.8
2022-10-11T05:52:01.797Z,1021.8
2022-10-11T05:53:02.620Z,1021.8
2022-10-11T05:54:02.426Z,1021.8
2022-10-11T05:55:02.435Z,1021.8
2022-10-11T05:56:03.376Z,1021.8
2022-10-11T05:57:02.253Z,1021.8
2022-10-11T05:58:02.172Z,1021.8
2022-10-11T05:59:03.190Z,1021.8
2022-10-11T06:00:01.924Z,1021.8
2022-10-11T06:01:01.996Z,1021.9
2022-10-11T06:02:02.686Z,1021.9
2022-10-11T06:03:02.515Z,1021.9
2022-10-11T06:04:02.475Z,1021.9
2022-10-11T06:05:02.319Z,1022
2022-10-11T06:06:02.081Z,1021.9
2022-10-11T06:07:02.038Z,1021.9
2022-10-11T06:08:01.787Z,1022
2022-10-11T06:09:01.841Z,1022
2022-10-11T06:10:02.698Z,1021.9
2022-10-11T06:11:02.467Z,1022
2022-10-11T06:12:02.444Z,1022
2022-10-11T06:13:02.257Z,1021.9
2022-10-11T06:14:02.006Z,1022.1
2022-10-11T06:15:02.004Z,1022.1
2022-10-11T06:16:02.805Z,1022
2022-10-11T06:17:01.883Z,1022
2022-10-11T06:18:01.764Z,1022.1
2022-10-11T06:19:02.749Z,1022.1
2022-10-11T06:20:02.522Z,1022.1
2022-10-11T06:21:02.434Z,1022.1
2022-10-11T06:22:02.270Z,1022.1
2022-10-11T06:23:02.069Z,1022.2
2022-10-11T06:24:02.239Z,1022.2
2022-10-11T06:25:01.935Z,1022.2
2022-10-11T06:26:03.115Z,1022.2
2022-10-11T06:27:01.898Z,1022.3
2022-10-11T06:28:01.884Z,1022.2
2022-10-11T06:29:02.854Z,1022.2
2022-10-11T06:30:02.538Z,1022.3
2022-10-11T06:31:02.524Z,1022.3
2022-10-11T06:32:02.138Z,1022.3
2022-10-11T06:33:05.368Z,1022.3
2022-10-11T06:34:02.035Z,1022.3
2022-10-11T06:35:02.041Z,1022.3
2022-10-11T06:36:03.023Z,1022.3
2022-10-11T06:37:01.894Z,1022.3
2022-10-11T06:38:01.718Z,1022.3
2022-10-11T06:39:02.689Z,1022.3
2022-10-11T06:40:02.511Z,1022.3
2022-10-11T06:41:02.413Z,1022.3
2022-10-11T06:42:02.269Z,1022.4
2022-10-11T06:43:02.026Z,1022.3
2022-10-11T06:44:01.953Z,1022.4
2022-10-11T06:45:01.707Z,1022.4
2022-10-11T06:46:03.875Z,1022.4
2022-10-11T06:47:02.439Z,1022.4
2022-10-11T06:48:02.481Z,1022.4
2022-10-11T06:49:02.291Z,1022.5
2022-10-11T06:50:02.028Z,1022.5
2022-10-11T06:51:02.280Z,1022.5
2022-10-11T06:52:01.913Z,1022.5
2022-10-11T06:53:01.838Z,1022.6
2022-10-11T06:54:02.723Z,1022.6
2022-10-11T06:55:02.522Z,1022.6
2022-10-11T06:56:04.062Z,1022.6
2022-10-11T06:57:01.963Z,1022.6
2022-10-11T06:58:01.922Z,1022.6
2022-10-11T06:59:01.685Z,1022.6
2022-10-11T07:00:02.647Z,1022.6
2022-10-11T07:01:02.651Z,1022.6
2022-10-11T07:02:01.770Z,1022.6
2022-10-11T07:03:01.736Z,1022.6
2022-10-11T07:04:02.688Z,1022.6
2022-10-11T07:05:02.468Z,1022.6
2022-10-11T07:06:03.390Z,1022.6
2022-10-11T07:07:02.313Z,1022.7
2022-10-11T07:08:02.109Z,1022.7
2022-10-11T07:09:02.141Z,1022.6
2022-10-11T07:10:01.794Z,1022.7
2022-10-11T07:11:01.782Z,1022.7
2022-10-11T07:12:02.695Z,1022.7
2022-10-11T07:13:02.357Z,1022.7
2022-10-11T07:14:02.380Z,1022.7
2022-10-11T07:15:02.252Z,1022.7
2022-10-11T07:16:03.196Z,1022.7
2022-10-11T07:17:01.730Z,1022.7
2022-10-11T07:18:02.696Z,1022.8
2022-10-11T07:19:02.482Z,1022.8
2022-10-11T07:20:02.464Z,1022.8
2022-10-11T07:21:02.390Z,1022.8
2022-10-11T07:22:02.063Z,1022.8
2022-10-11T07:23:02.085Z,1022.8
2022-10-11T07:24:01.913Z,1022.8
2022-10-11T07:25:01.741Z,1022.8
2022-10-11T07:26:03.846Z,1022.9
2022-10-11T07:27:01.715Z,1022.8
2022-10-11T07:28:02.669Z,1022.8
2022-10-11T07:29:02.663Z,1022.9
2022-10-11T07:30:02.460Z,1022.8
2022-10-11T07:31:02.347Z,1022.8
2022-10-11T07:32:02.174Z,1022.8
2022-10-11T07:33:02.179Z,1022.8
2022-10-11T07:34:01.920Z,1022.9
2022-10-11T07:35:01.840Z,1022.9
2022-10-11T07:36:04.262Z,1022.9
2022-10-11T07:37:02.223Z,1022.9
2022-10-11T07:38:02.171Z,1023
2022-10-11T07:39:01.911Z,1022.9
2022-10-11T07:40:01.908Z,1023
2022-10-11T07:41:02.748Z,1023
2022-10-11T07:42:02.489Z,1023
2022-10-11T07:43:02.451Z,1023
2022-10-11T07:44:02.371Z,1023.1
2022-10-11T07:45:02.102Z,1023
2022-10-11T07:46:02.810Z,1023
2022-10-11T07:47:02.705Z,1023.1
2022-10-11T07:48:02.459Z,1023.1
2022-10-11T07:49:02.432Z,1023
2022-10-11T07:50:02.305Z,1023
2022-10-11T07:51:02.041Z,1023.1
2022-10-11T07:52:01.975Z,1023.1
2022-10-11T07:53:01.728Z,1023.1
2022-10-11T07:54:07.863Z,1023.1
2022-10-11T07:55:02.532Z,1023.2
2022-10-11T07:56:04.052Z,1023.1
2022-10-11T07:57:01.925Z,1023.2
2022-10-11T07:58:01.891Z,1023.1
2022-10-11T07:59:02.673Z,1023.2
2022-10-11T08:00:02.486Z,1023.2
2022-10-11T08:01:02.725Z,1023.2
2022-10-11T08:02:02.982Z,1023.2
2022-10-11T08:03:01.679Z,1023.2
2022-10-11T08:04:02.674Z,1023.2
2022-10-11T08:05:02.459Z,1023.2
2022-10-11T08:06:03.174Z,1023.2
2022-10-11T08:07:02.070Z,1023.3
2022-10-11T08:08:02.046Z,1023.3
2022-10-11T08:09:01.761Z,1023.2
2022-10-11T08:10:02.794Z,1023.3
2022-10-11T08:11:02.467Z,1023.3
2022-10-11T08:12:02.480Z,1023.3
2022-10-11T08:13:05.065Z,1023.3
2022-10-11T08:14:01.714Z,1023.3
2022-10-11T08:15:02.718Z,1023.4
2022-10-11T08:16:03.297Z,1023.3
2022-10-11T08:17:02.364Z,1023.4
2022-10-11T08:18:02.445Z,1023.4
2022-10-11T08:19:02.234Z,1023.4
2022-10-11T08:20:01.998Z,1023.4
2022-10-11T08:21:01.999Z,1023.4
2022-10-11T08:22:01.730Z,1023.4
2022-10-11T08:23:02.730Z,1023.4
2022-10-11T08:24:02.464Z,1023.4
2022-10-11T08:25:02.478Z,1023.4
2022-10-11T08:26:03.320Z,1023.5
2022-10-11T08:27:02.412Z,1023.5
2022-10-11T08:28:02.235Z,1023.5
2022-10-11T08:29:02.259Z,1023.5
2022-10-11T08:30:02.168Z,1023.5
2022-10-11T08:31:01.812Z,1023.5
2022-10-11T08:32:01.717Z,1023.5
2022-10-11T08:33:09.014Z,1023.6
2022-10-11T08:34:01.675Z,1023.5
2022-10-11T08:35:02.696Z,1023.5
2022-10-11T08:36:03.899Z,1023.6
2022-10-11T08:37:01.987Z,1023.6
2022-10-11T08:38:01.843Z,1023.5
2022-10-11T08:39:02.673Z,1023.6
2022-10-11T08:40:02.582Z,1023.6
2022-10-11T08:41:02.526Z,1023.6
2022-10-11T08:42:02.252Z,1023.6
2022-10-11T08:43:02.199Z,1023.7
2022-10-11T08:44:02.009Z,1023.7
2022-10-11T08:45:12.632Z,1023.6
2022-10-11T08:46:03.424Z,1023.7
2022-10-11T08:47:02.631Z,1023.7
2022-10-11T08:48:02.667Z,1023.7
2022-10-11T08:49:02.352Z,1023.6
2022-10-11T08:50:02.520Z,1023.7
2022-10-11T08:51:02.265Z,1023.8
2022-10-11T08:52:02.088Z,1023.7
2022-10-11T08:53:02.099Z,1023.7
2022-10-11T08:54:08.293Z,1023.8
2022-10-11T08:55:01.983Z,1023.8
2022-10-11T08:56:02.071Z,1023.8
2022-10-11T08:57:01.724Z,1023.8
2022-10-11T08:58:02.751Z,1023.8
2022-10-11T08:59:02.475Z,1023.8
2022-10-11T09:00:02.513Z,1023.9
2022-10-11T09:01:02.474Z,1023.8
2022-10-11T09:02:02.595Z,1023.8
2022-10-11T09:03:10.265Z,1023.8
2022-10-11T09:04:01.938Z,1023.8
2022-10-11T09:05:01.878Z,1023.9
2022-10-11T09:06:01.756Z,1023.9
2022-10-11T09:07:05.486Z,1023.9
2022-10-11T09:08:02.121Z,1023.9
2022-10-11T09:09:02.161Z,1023.8
2022-10-11T09:10:01.885Z,1023.8
2022-10-11T09:11:01.868Z,1023.9
2022-10-11T09:12:02.766Z,1023.9
2022-10-11T09:13:02.498Z,1023.9
2022-10-11T09:14:02.489Z,1023.9
2022-10-11T09:15:02.386Z,1023.9
2022-10-11T09:16:02.821Z,1023.9
2022-10-11T09:17:01.769Z,1023.9
2022-10-11T09:18:01.801Z,1023.9
2022-10-11T09:19:02.645Z,1023.8
2022-10-11T09:20:02.461Z,1023.9
2022-10-11T09:21:02.410Z,1023.9
2022-10-11T09:22:02.283Z,1023.9
2022-10-11T09:23:02.046Z,1024
2022-10-11T09:24:01.978Z,1023.9
2022-10-11T09:25:01.731Z,1023.9
2022-10-11T09:26:03.778Z,1024
2022-10-11T09:27:01.693Z,1023.9
2022-10-11T09:28:04.413Z,1023.9
2022-10-11T09:29:02.387Z,1023.9
2022-10-11T09:30:02.190Z,1024
2022-10-11T09:31:01.974Z,1024
2022-10-11T09:32:02.033Z,1024
2022-10-11T09:33:01.980Z,1024
2022-10-11T09:34:01.719Z,1024
2022-10-11T09:35:02.711Z,1024
2022-10-11T09:36:03.622Z,1024
2022-10-11T09:37:02.516Z,1024
2022-10-11T09:38:02.496Z,1024
2022-10-11T09:39:07.217Z,1024.1
2022-10-11T09:40:01.878Z,1024
2022-10-11T09:41:01.817Z,1024
2022-10-11T09:42:02.704Z,1024
2022-10-11T09:43:02.447Z,1024
2022-10-11T09:44:02.459Z,1024
2022-10-11T09:45:02.427Z,1024.1
2022-10-11T09:46:02.972Z,1024
2022-10-11T09:47:02.210Z,1024.1
2022-10-11T09:48:02.139Z,1024
2022-10-11T09:49:01.888Z,1024.1
2022-10-11T09:50:01.929Z,1024.1
2022-10-11T09:51:02.699Z,1024
2022-10-11T09:52:02.468Z,1024.1
2022-10-11T09:53:02.447Z,1024
2022-10-11T09:54:02.306Z,1024.1
2022-10-11T09:55:01.999Z,1024.1
2022-10-11T09:56:02.746Z,1024.1
2022-10-11T09:57:02.545Z,1024.1
2022-10-11T09:58:02.369Z,1024.1
2022-10-11T09:59:02.334Z,1024.1
2022-10-11T10:00:02.172Z,1024.2
2022-10-11T10:01:08.718Z,1024.1
2022-10-11T10:02:02.768Z,1024.1
2022-10-11T10:03:02.488Z,1024.1
2022-10-11T10:04:02.495Z,1024.2
2022-10-11T10:05:02.381Z,1024.1
2022-10-11T10:06:03.051Z,1024.1
2022-10-11T10:07:02.096Z,1024.1
2022-10-11T10:08:05.648Z,1024.2
2022-10-11T10:09:02.316Z,1024.1
2022-10-11T10:10:02.361Z,1024.2
2022-10-11T10:11:02.129Z,1024.2
2022-10-11T10:12:02.014Z,1024.2
2022-10-11T10:13:01.773Z,1024.2
2022-10-11T10:14:01.775Z,1024.2
2022-10-11T10:15:02.635Z,1024.3
2022-10-11T10:16:03.326Z,1024.2
2022-10-11T10:17:02.045Z,1024.2
2022-10-11T10:18:02.036Z,1024.2
2022-10-11T10:19:01.733Z,1024.2
2022-10-11T10:20:02.736Z,1024.2
2022-10-11T10:21:02.530Z,1024.2
2022-10-11T10:22:02.488Z,1024.2
2022-10-11T10:23:02.342Z,1024.2
2022-10-11T10:24:02.064Z,1024.2
2022-10-11T10:25:02.058Z,1024.2
2022-10-11T10:26:01.766Z,1024.3
2022-10-11T10:27:02.749Z,1024.3
2022-10-11T10:28:02.454Z,1024.2
2022-10-11T10:29:02.489Z,1024.3
2022-10-11T10:30:02.509Z,1024.3
2022-10-11T10:31:02.206Z,1024.3
2022-10-11T10:32:15.523Z,1024.2
2022-10-11T10:33:02.236Z,1024.3
2022-10-11T10:34:02.229Z,1024.3
2022-10-11T10:35:01.973Z,1024.3
2022-10-11T10:36:02.599Z,1024.3
2022-10-11T10:37:02.562Z,1024.3
2022-10-11T10:38:02.553Z,1024.3
2022-10-11T10:39:02.322Z,1024.3
2022-10-11T10:40:02.065Z,1024.3
2022-10-11T10:41:02.046Z,1024.3
2022-10-11T10:42:01.760Z,1024.3
2022-10-11T10:43:02.717Z,1024.3
2022-10-11T10:44:02.533Z,1024.3
2022-10-11T10:45:02.480Z,1024.4
2022-10-11T10:46:02.826Z,1024.3
2022-10-11T10:47:02.134Z,1024.3
2022-10-11T10:48:02.083Z,1024.4
2022-10-11T10:49:54.871Z,1024.4
2022-10-11T10:50:01.724Z,1024.4
2022-10-11T10:51:10.683Z,1024.4
2022-10-11T10:52:02.368Z,1024.4
2022-10-11T10:53:02.429Z,1024.4
2022-10-11T10:54:02.126Z,1024.4
2022-10-11T10:55:02.168Z,1024.4
2022-10-11T10:56:02.064Z,1024.4
2022-10-11T10:57:01.979Z,1024.4
2022-10-11T10:58:01.733Z,1024.4
2022-10-11T10:59:02.672Z,1024.4
2022-10-11T11:00:02.483Z,1024.4
2022-10-11T11:01:02.424Z,1024.4
2022-10-11T11:02:40.983Z,1024.4
2022-10-11T11:03:02.105Z,1024.4
2022-10-11T11:04:02.014Z,1024.4
2022-10-11T11:05:01.727Z,1024.4
2022-10-11T11:06:03.537Z,1024.4
2022-10-11T11:07:02.545Z,1024.4
2022-10-11T11:08:02.526Z,1024.4
2022-10-11T11:09:02.240Z,1024.4
2022-10-11T11:10:02.204Z,1024.4
2022-10-11T11:11:01.881Z,1024.4
2022-10-11T11:12:01.838Z,1024.4
2022-10-11T11:13:02.647Z,1024.4
2022-10-11T11:14:02.523Z,1024.4
2022-10-11T11:15:02.380Z,1024.4
2022-10-11T11:16:03.380Z,1024.3
2022-10-11T11:17:02.308Z,1024.3
2022-10-11T11:18:02.142Z,1024.3
2022-10-11T11:19:01.970Z,1024.4
2022-10-11T11:20:01.888Z,1024.4
2022-10-11T11:21:01.723Z,1024.3
2022-10-11T11:22:02.568Z,1024.4
2022-10-11T11:23:02.444Z,1024.4
2022-10-11T11:24:02.328Z,1024.4
2022-10-11T11:25:02.229Z,1024.4
2022-10-11T11:26:02.638Z,1024.4
2022-10-11T11:27:02.458Z,1024.4
2022-10-11T11:28:02.362Z,1024.4
2022-10-11T11:29:02.192Z,1024.4
2022-10-11T11:30:02.070Z,1024.3
2022-10-11T11:31:01.993Z,1024.4
2022-10-11T11:32:02.522Z,1024.4
2022-10-11T11:33:02.428Z,1024.4
2022-10-11T11:34:02.368Z,1024.4
2022-10-11T11:35:02.136Z,1024.4
2022-10-11T11:36:02.745Z,1024.4
2022-10-11T11:37:01.726Z,1024.3
2022-10-11T11:38:06.975Z,1024.4
2022-10-11T11:39:01.669Z,1024.4
2022-10-11T11:40:02.572Z,1024.4
2022-10-11T11:41:03.628Z,1024.4
2022-10-11T11:42:02.520Z,1024.3
2022-10-11T11:43:02.409Z,1024.3
2022-10-11T11:44:02.315Z,1024.4
2022-10-11T11:45:02.123Z,1024.3
2022-10-11T11:46:02.012Z,1024.4
2022-10-11T11:47:01.859Z,1024.3
2022-10-11T11:48:01.736Z,1024.3
2022-10-11T11:49:02.627Z,1024.4
2022-10-11T11:50:02.437Z,1024.3
2022-10-11T11:51:03.697Z,1024.3
2022-10-11T11:52:02.600Z,1024.3
2022-10-11T11:53:02.404Z,1024.3
2022-10-11T11:54:02.411Z,1024.3
2022-10-11T11:55:04.668Z,1024.3
2022-10-11T11:56:02.336Z,1024.3
2022-10-11T11:57:02.462Z,1024.3
2022-10-11T11:58:07.726Z,1024.3
2022-10-11T11:59:02.421Z,1024.3
2022-10-11T12:00:02.368Z,1024.3
2022-10-11T12:01:02.823Z,1024.3
2022-10-11T12:02:02.099Z,1024.3
2022-10-11T12:03:01.900Z,1024.3
2022-10-11T12:04:02.725Z,1024.3
2022-10-11T12:05:02.529Z,1024.3
2022-10-11T12:06:02.486Z,1024.4
2022-10-11T12:07:17.842Z,1024.3
2022-10-11T12:08:02.654Z,1024.3
2022-10-11T12:09:02.650Z,1024.3
2022-10-11T12:10:02.417Z,1024.3
2022-10-11T12:11:03.123Z,1024.3
2022-10-11T12:12:01.881Z,1024.3
2022-10-11T12:13:01.821Z,1024.3
2022-10-11T12:14:02.749Z,1024.3
2022-10-11T12:15:02.459Z,1024.2
2022-10-11T12:16:02.447Z,1024.3
2022-10-11T12:17:02.531Z,1024.3
2022-10-11T12:18:02.203Z,1024.3
2022-10-11T12:19:02.190Z,1024.3
2022-10-11T12:20:01.983Z,1024.3
2022-10-11T12:21:02.105Z,1024.2
2022-10-11T12:22:01.795Z,1024.2
2022-10-11T12:23:01.785Z,1024.2
2022-10-11T12:24:02.695Z,1024.2
2022-10-11T12:25:02.465Z,1024.2
2022-10-11T12:26:02.495Z,1024.3
2022-10-11T12:27:02.269Z,1024.2
2022-10-11T12:28:02.042Z,1024.2
2022-10-11T12:29:01.977Z,1024.2
2022-10-11T12:30:01.722Z,1024.1
2022-10-11T12:31:03.385Z,1024.2
2022-10-11T12:32:02.544Z,1024.2